Time;durP1;ratioP1;P1;durP2;ratioP2;P2;SDS_P1;SDS_P2;PMS_P1;PMS_P2;Temp;Humidity;BMP_temperature;BMP_pressure;BME280_temperature;BME280_humidity;BME280_pressure;Samples;Min_cycle;Max_cycle;Signal;HPM_P1;HPM_P2
2022/04/21 00:03:09;;;;;;;4.43;2.97;;;10.40;82.80;;;;;;10433457;28;20989;-71
2022/04/21 00:08:11;;;;;;;6.40;3.20;;;10.30;83.60;;;;;;10434230;28;20349;-71
2022/04/21 00:13:12;;;;;;;3.57;3.20;;;10.20;84.60;;;;;;10438678;28;20219;-70
2022/04/21 00:18:13;;;;;;;5.63;3.40;;;10.10;85.80;;;;;;10438370;28;20211;-69
2022/04/21 00:23:29;;;;;;;4.40;2.83;;;10.00;86.80;;;;;;10436823;28;20698;-70
2022/04/21 00:28:30;;;;;;;4.43;3.47;;;9.90;87.60;;;;;;10438045;28;20714;-70
2022/04/21 00:33:31;;;;;;;4.57;2.90;;;9.80;89.20;;;;;;10437045;28;20235;-70
2022/04/21 00:38:32;;;;;;;4.00;3.33;;;9.70;90.50;;;;;;10428500;28;20222;-69
2022/04/21 00:43:33;;;;;;;3.73;2.73;;;9.60;91.40;;;;;;10444086;28;20292;-70
2022/04/21 00:48:34;;;;;;;3.47;2.90;;;9.60;91.80;;;;;;10415833;28;20234;-71
2022/04/21 00:53:35;;;;;;;3.63;3.13;;;9.50;92.30;;;;;;10436687;28;20227;-70
2022/04/21 00:58:37;;;;;;;4.00;3.20;;;9.50;93.20;;;;;;10427090;28;20248;-70
2022/04/21 01:03:38;;;;;;;4.13;3.30;;;9.40;93.90;;;;;;10420250;28;20640;-70
2022/04/21 01:08:39;;;;;;;5.50;3.63;;;9.30;94.80;;;;;;10428463;28;20228;-70
2022/04/21 01:13:40;;;;;;;4.00;3.43;;;9.20;95.80;;;;;;10426780;28;20236;-69
2022/04/21 01:18:41;;;;;;;4.70;3.27;;;9.20;96.60;;;;;;10424674;28;20353;-70
2022/04/21 01:23:41;;;;;;;6.27;4.23;;;9.10;97.50;;;;;;10413133;28;20212;-70
2022/04/21 01:28:44;;;;;;;4.23;3.47;;;9.10;98.20;;;;;;10435349;28;20761;-69
2022/04/21 01:33:48;;;;;;;5.50;3.10;;;9.10;98.90;;;;;;10427508;28;20661;-71
2022/04/21 01:44:07;;;;;;;5.73;3.87;;;9.10;99.90;;;;;;10426083;28;20257;-71
2022/04/21 01:49:08;;;;;;;6.50;3.60;;;9.00;99.90;;;;;;10425619;28;20254;-69
2022/04/21 01:54:09;;;;;;;4.67;3.47;;;9.00;99.90;;;;;;10406941;28;20247;-70
2022/04/21 01:59:10;;;;;;;3.97;3.30;;;9.10;99.90;;;;;;10425571;28;20226;-70
2022/04/21 02:04:10;;;;;;;4.40;3.80;;;9.10;99.90;;;;;;10445106;28;20228;-70
2022/04/21 02:09:11;;;;;;;4.47;3.37;;;9.10;99.90;;;;;;10430279;28;20219;-70
2022/04/21 02:14:11;;;;;;;4.97;3.53;;;9.10;99.90;;;;;;10432749;28;20642;-70
2022/04/21 02:19:12;;;;;;;4.27;3.30;;;9.00;99.90;;;;;;10441536;28;20748;-69
2022/04/21 02:24:12;;;;;;;3.87;3.40;;;9.00;99.90;;;;;;10436623;28;20298;-70
2022/04/21 02:29:13;;;;;;;6.47;3.93;;;8.90;99.90;;;;;;10434991;28;20223;-71
2022/04/21 02:34:13;;;;;;;5.37;3.70;;;8.80;99.90;;;;;;10438650;28;20234;-70
2022/04/21 02:39:14;;;;;;;4.63;4.20;;;8.70;99.90;;;;;;10417398;28;20251;-71
2022/04/21 02:44:14;;;;;;;7.80;4.03;;;8.70;99.90;;;;;;10444324;28;20315;-71
2022/04/21 02:49:15;;;;;;;4.47;3.80;;;8.60;99.90;;;;;;10439386;28;20231;-70
2022/04/21 02:59:36;;;;;;;5.80;4.40;;;8.60;99.90;;;;;;10432376;28;20442;-69
2022/04/21 03:04:42;;;;;;;8.07;4.33;;;8.50;99.90;;;;;;10437430;28;20219;-70
2022/04/21 03:09:46;;;;;;;7.37;5.00;;;8.50;99.90;;;;;;10432401;28;20224;-70
2022/04/21 03:14:47;;;;;;;8.47;4.57;;;8.50;99.90;;;;;;10420617;28;20361;-70
2022/04/21 03:19:48;;;;;;;7.60;4.10;;;8.50;99.90;;;;;;10413054;28;20227;-70
2022/04/21 03:24:51;;;;;;;5.53;3.63;;;8.40;99.90;;;;;;10422462;28;20216;-72
2022/04/21 03:29:52;;;;;;;3.63;3.30;;;8.40;99.90;;;;;;10413666;28;20216;-70
2022/04/21 03:34:59;;;;;;;6.50;3.77;;;8.30;99.90;;;;;;10439314;28;20590;-70
2022/04/21 03:39:59;;;;;;;4.33;3.53;;;8.30;99.90;;;;;;10424694;28;20291;-70
2022/04/21 03:45:00;;;;;;;4.83;4.10;;;8.40;99.90;;;;;;10413171;28;20307;-71
2022/04/21 03:50:01;;;;;;;7.33;4.27;;;8.40;99.90;;;;;;10412500;28;20215;-70
2022/04/21 03:55:01;;;;;;;10.43;4.63;;;8.40;99.90;;;;;;10447121;28;20875;-72
2022/04/21 04:00:02;;;;;;;5.03;3.73;;;8.30;99.90;;;;;;10431027;28;20685;-71
2022/04/21 04:05:03;;;;;;;5.53;4.40;;;8.20;99.90;;;;;;10446872;28;20209;-70
2022/04/21 04:15:23;;;;;;;9.87;5.53;;;8.30;99.90;;;;;;10430292;28;20216;-71
2022/04/21 04:20:24;;;;;;;9.77;5.43;;;8.30;99.90;;;;;;10427521;28;20220;-69
2022/04/21 04:25:25;;;;;;;9.80;5.67;;;8.30;99.90;;;;;;10438255;28;20209;-69
2022/04/21 04:30:25;;;;;;;9.73;5.43;;;8.20;99.90;;;;;;10437528;28;20223;-69
2022/04/21 04:35:26;;;;;;;5.77;4.70;;;8.20;99.90;;;;;;10429424;28;20212;-69
2022/04/21 04:40:27;;;;;;;6.40;4.70;;;8.20;99.90;;;;;;10448276;28;20212;-70
2022/04/21 04:50:47;;;;;;;16.50;5.00;;;8.30;99.90;;;;;;10429681;28;20224;-69
2022/04/21 04:55:47;;;;;;;12.90;5.37;;;8.30;99.90;;;;;;10435451;28;20228;-69
2022/04/21 05:00:48;;;;;;;9.00;5.03;;;8.50;99.90;;;;;;10446567;28;20571;-71
2022/04/21 05:05:49;;;;;;;9.57;4.77;;;8.60;99.90;;;;;;10436342;28;20216;-69
2022/04/21 05:10:53;;;;;;;5.70;4.37;;;8.70;99.90;;;;;;10434276;28;20537;-69
2022/04/21 05:15:54;;;;;;;7.10;4.23;;;8.90;99.90;;;;;;10426438;28;20213;-69
2022/04/21 05:20:55;;;;;;;7.47;4.50;;;9.10;99.90;;;;;;10432183;28;20213;-69
2022/04/21 05:25:56;;;;;;;7.33;4.20;;;9.20;99.90;;;;;;10429349;28;20715;-69
2022/04/21 05:31:01;;;;;;;8.27;5.00;;;9.20;99.90;;;;;;10431788;28;20232;-69
2022/04/21 05:36:03;;;;;;;10.10;5.50;;;9.20;99.90;;;;;;10436317;28;20223;-68
2022/04/21 05:41:04;;;;;;;8.30;5.00;;;9.30;99.90;;;;;;10431534;28;20242;-69
2022/04/21 05:46:06;;;;;;;5.53;4.60;;;9.40;99.90;;;;;;10438984;28;20219;-69
2022/04/21 05:51:12;;;;;;;9.63;5.30;;;9.30;99.90;;;;;;10437240;28;20623;-70
2022/04/21 05:56:13;;;;;;;14.53;5.60;;;9.50;99.90;;;;;;10413645;28;20236;-71
2022/04/21 06:01:13;;;;;;;14.03;5.20;;;10.60;99.90;;;;;;10424652;28;20228;-69
2022/04/21 06:06:14;;;;;;;5.63;4.30;;;11.30;99.90;;;;;;10428205;28;20228;-70
2022/04/21 06:11:15;;;;;;;7.63;4.77;;;11.90;99.90;;;;;;10431128;28;20272;-70
2022/04/21 06:16:16;;;;;;;9.30;5.00;;;12.00;99.90;;;;;;10428525;28;20225;-71
2022/04/21 06:21:16;;;;;;;6.87;5.00;;;12.10;99.90;;;;;;10415549;28;20221;-72
2022/04/21 06:26:25;;;;;;;10.90;5.77;;;13.20;99.90;;;;;;10424364;28;20231;-72
2022/04/21 06:31:25;;;;;;;10.00;5.13;;;15.20;94.30;;;;;;10430598;28;20237;-69
2022/04/21 06:36:26;;;;;;;8.17;5.00;;;15.00;90.50;;;;;;10427268;28;20220;-74
2022/04/21 06:41:27;;;;;;;13.20;6.60;;;14.30;91.90;;;;;;10436550;28;20223;-70
2022/04/21 06:51:47;;;;;;;10.83;6.13;;;13.60;92.60;;;;;;10442160;28;20247;-72
2022/04/21 06:56:48;;;;;;;9.87;6.37;;;12.90;94.10;;;;;;10441942;28;20236;-70
2022/04/21 07:01:49;;;;;;;15.60;7.30;;;12.50;95.60;;;;;;10455144;28;20212;-69
2022/04/21 07:06:49;;;;;;;5.87;4.83;;;12.40;96.60;;;;;;10429996;28;20212;-70
2022/04/21 07:11:50;;;;;;;5.40;4.70;;;12.80;96.10;;;;;;10438020;28;20224;-69
2022/04/21 07:16:51;;;;;;;7.20;4.73;;;12.70;95.70;;;;;;10437468;28;20261;-69
2022/04/21 07:21:51;;;;;;;7.23;4.90;;;12.70;95.80;;;;;;10447994;28;20235;-69
2022/04/21 07:26:53;;;;;;;6.80;4.87;;;13.00;95.70;;;;;;10452651;28;20204;-69
2022/04/21 07:31:53;;;;;;;8.33;5.17;;;13.70;94.40;;;;;;10436963;28;20583;-69
2022/04/21 07:36:54;;;;;;;8.43;5.23;;;15.10;92.80;;;;;;10436525;28;20212;-71
2022/04/21 07:41:56;;;;;;;7.60;5.40;;;17.90;79.70;;;;;;10433316;28;20651;-72
2022/04/21 07:46:57;;;;;;;8.43;5.23;;;20.00;64.00;;;;;;10437880;28;20252;-73
2022/04/21 07:57:17;;;;;;;6.50;4.57;;;17.70;67.20;;;;;;10429906;28;20227;-70
2022/04/21 08:02:18;;;;;;;8.27;5.20;;;16.50;71.80;;;;;;10430474;28;20211;-70
2022/04/21 08:07:19;;;;;;;5.17;4.30;;;15.90;73.60;;;;;;10428432;28;20231;-70
2022/04/21 08:12:19;;;;;;;6.05;4.85;;;15.80;75.60;;;;;;10437072;28;20427;-73
2022/04/21 08:17:20;;;;;;;4.63;4.17;;;16.20;74.60;;;;;;10438989;28;20227;-73
2022/04/21 08:22:20;;;;;;;4.70;3.83;;;16.50;73.40;;;;;;10447135;28;20212;-72
2022/04/21 08:32:44;;;;;;;6.60;4.00;;;18.20;64.90;;;;;;10438861;28;20223;-73
2022/04/21 08:40:27;;;;;;;9.53;4.10;;;19.20;61.60;;;;;;10551263;27;20531;-75
2022/04/21 08:45:30;;;;;;;6.57;3.93;;;20.30;58.30;;;;;;10429490;28;20221;-71
2022/04/21 08:50:34;;;;;;;4.10;3.60;;;20.10;57.90;;;;;;10413313;28;20284;-72
2022/04/21 08:55:38;;;;;;;4.60;3.63;;;21.20;55.30;;;;;;10421577;28;20291;-71
2022/04/21 09:00:44;;;;;;;6.27;3.90;;;21.20;53.80;;;;;;10423733;28;20219;-72
2022/04/21 09:05:44;;;;;;;3.83;3.13;;;21.40;52.90;;;;;;10431918;28;20226;-72
2022/04/21 09:10:45;;;;;;;4.00;3.40;;;22.20;52.20;;;;;;10417589;28;20216;-70
2022/04/21 09:15:47;;;;;;;4.80;3.10;;;24.20;46.90;;;;;;10414798;28;20271;-70
2022/04/21 09:20:53;;;;;;;4.90;2.80;;;25.60;45.40;;;;;;10418569;28;20238;-70
2022/04/21 09:25:57;;;;;;;5.17;2.97;;;25.90;41.50;;;;;;10418971;28;20758;-71
2022/04/21 09:31:02;;;;;;;4.30;2.67;;;24.20;42.70;;;;;;10419555;28;20221;-72
2022/04/21 09:36:05;;;;;;;4.53;2.83;;;23.40;45.00;;;;;;10421695;28;20228;-70
2022/04/21 09:41:07;;;;;;;3.10;2.07;;;25.00;41.40;;;;;;10431899;28;20224;-71
2022/04/21 09:46:16;;;;;;;2.37;2.13;;;25.00;39.60;;;;;;10425182;28;20223;-70
2022/04/21 09:51:24;;;;;;;4.73;2.43;;;24.90;39.60;;;;;;10413539;28;20234;-72
2022/04/21 09:56:33;;;;;;;4.53;2.30;;;24.30;39.40;;;;;;10405237;28;20216;-72
2022/04/21 10:01:39;;;;;;;10.63;2.93;;;23.70;40.60;;;;;;10399640;28;20632;-72
2022/04/21 10:06:41;;;;;;;4.93;2.30;;;25.00;39.30;;;;;;10383146;28;20224;-72
2022/04/21 10:11:42;;;;;;;8.20;2.90;;;22.90;41.50;;;;;;10404829;28;20224;-74
2022/04/21 10:16:43;;;;;;;3.80;2.33;;;24.40;40.90;;;;;;10395254;28;20216;-72
2022/04/21 10:21:49;;;;;;;3.07;2.87;;;26.50;37.60;;;;;;10367761;28;20236;-70
2022/04/21 10:26:50;;;;;;;4.97;2.40;;;25.00;38.60;;;;;;10390925;28;20312;-72
2022/04/21 10:31:59;;;;;;;3.57;2.50;;;26.60;37.70;;;;;;10389953;28;20223;-71
2022/04/21 10:37:21;;;;;;;3.13;2.00;;;28.10;34.40;;;;;;10406481;28;20251;-74
2022/04/21 10:42:22;;;;;;;5.20;2.60;;;28.30;33.40;;;;;;10431115;28;20247;-72
2022/04/21 10:47:37;;;;;;;4.73;2.13;;;29.40;32.50;;;;;;10398698;28;20839;-72
2022/04/21 10:57:46;;;;;;;6.40;3.00;;;26.80;36.10;;;;;;10399917;28;20236;-72
2022/04/21 11:02:46;;;;;;;4.97;2.37;;;24.50;38.10;;;;;;10399510;28;20212;-71
2022/04/21 11:08:00;;;;;;;4.33;2.50;;;23.50;41.80;;;;;;10409621;28;20220;-70
2022/04/21 11:13:01;;;;;;;3.33;2.50;;;21.80;43.80;;;;;;10405129;28;20225;-71
2022/04/21 11:18:12;;;;;;;4.50;2.70;;;20.90;46.50;;;;;;10387246;28;20225;-71
2022/04/21 11:23:44;;;;;;;3.13;2.20;;;19.30;50.60;;;;;;10391316;28;20231;-71
2022/04/21 11:28:46;;;;;;;4.77;2.57;;;19.20;51.90;;;;;;10384094;28;20271;-71
2022/04/21 11:33:47;;;;;;;3.27;2.40;;;19.50;51.90;;;;;;10393177;28;20220;-71
2022/04/21 11:38:47;;;;;;;6.63;2.80;;;19.40;51.40;;;;;;10388324;28;20259;-71
2022/04/21 11:43:49;;;;;;;7.20;2.67;;;18.40;52.30;;;;;;10408136;28;20213;-72
2022/04/21 11:49:00;;;;;;;2.50;2.30;;;18.30;54.30;;;;;;10429338;28;20227;-71
2022/04/21 11:54:07;;;;;;;2.40;2.00;;;18.30;53.70;;;;;;10420892;28;20276;-70
2022/04/21 11:59:09;;;;;;;4.03;2.30;;;18.40;53.70;;;;;;10406888;28;20224;-70
2022/04/21 12:09:38;;;;;;;6.17;2.40;;;19.50;52.50;;;;;;10413512;28;20216;-72
2022/04/21 12:14:43;;;;;;;4.83;2.30;;;20.60;50.30;;;;;;10403863;28;20282;-71
2022/04/21 12:19:46;;;;;;;5.03;2.50;;;20.20;49.90;;;;;;10414855;28;20230;-71
2022/04/21 12:24:54;;;;;;;3.43;2.23;;;19.90;50.30;;;;;;10400966;28;20719;-70
2022/04/21 12:30:05;;;;;;;5.60;2.47;;;19.70;51.40;;;;;;10394944;28;20584;-70
2022/04/21 12:35:08;;;;;;;4.60;2.50;;;19.30;53.00;;;;;;10395173;28;20590;-71
2022/04/21 12:40:14;;;;;;;3.93;2.60;;;19.20;52.20;;;;;;10410239;28;20750;-71
2022/04/21 12:45:15;;;;;;;4.80;2.30;;;19.20;52.80;;;;;;10391604;28;20192;-71
2022/04/21 12:50:23;;;;;;;4.90;1.87;;;19.50;52.00;;;;;;10408212;28;20691;-72
2022/04/21 12:55:26;;;;;;;6.53;2.23;;;19.30;52.80;;;;;;10376443;28;20225;-73
2022/04/21 13:00:27;;;;;;;5.67;2.00;;;19.20;52.50;;;;;;10384078;28;20244;-74
2022/04/21 13:05:28;;;;;;;3.43;2.20;;;18.70;53.10;;;;;;10394918;28;20321;-70
2022/04/21 13:10:28;;;;;;;6.43;2.60;;;18.90;53.40;;;;;;10398040;28;20753;-69
2022/04/21 13:15:36;;;;;;;4.63;2.87;;;18.80;53.40;;;;;;10397448;28;20303;-70
2022/04/21 13:25:55;;;;;;;4.23;2.03;;;19.00;54.10;;;;;;10411082;28;20314;-69
2022/04/21 13:36:22;;;;;;;5.07;2.50;;;19.10;53.80;;;;;;10419647;28;20232;-69
2022/04/21 13:41:23;;;;;;;4.17;2.40;;;18.90;53.30;;;;;;10413671;28;20242;-69
2022/04/21 13:46:24;;;;;;;5.50;2.40;;;18.60;54.90;;;;;;10398775;28;20215;-69
2022/04/21 13:51:25;;;;;;;6.20;3.00;;;18.50;54.90;;;;;;10412937;28;20230;-70
2022/04/21 13:56:26;;;;;;;4.40;2.33;;;18.10;55.90;;;;;;10414772;28;20231;-71
2022/04/21 14:01:28;;;;;;;3.30;2.23;;;18.00;57.00;;;;;;10413282;28;20219;-69
2022/04/21 14:06:28;;;;;;;2.67;2.47;;;18.20;56.80;;;;;;10389285;28;20229;-70
2022/04/21 14:11:29;;;;;;;5.57;2.90;;;18.30;56.20;;;;;;10398402;28;20223;-69
2022/04/21 14:16:31;;;;;;;4.20;2.43;;;18.40;56.60;;;;;;10402477;28;20220;-69
2022/04/21 14:21:35;;;;;;;4.17;2.47;;;18.80;54.80;;;;;;10381225;28;20705;-69
2022/04/21 14:26:36;;;;;;;2.33;1.70;;;18.90;54.30;;;;;;10392049;28;20232;-73
2022/04/21 14:31:39;;;;;;;4.17;1.73;;;19.10;54.70;;;;;;10388482;28;20229;-69
2022/04/21 14:36:39;;;;;;;2.00;1.50;;;18.70;52.90;;;;;;10398207;28;20711;-70
2022/04/21 14:47:02;;;;;;;4.33;2.07;;;18.20;53.90;;;;;;10389661;28;20228;-69
2022/04/21 14:52:06;;;;;;;3.23;1.80;;;18.20;53.30;;;;;;10398557;28;20678;-69
2022/04/21 14:57:13;;;;;;;2.40;1.87;;;18.10;53.60;;;;;;10385092;28;20579;-70
2022/04/21 15:02:14;;;;;;;2.53;1.57;;;18.00;54.30;;;;;;10399496;28;20566;-69
2022/04/21 15:07:15;;;;;;;4.17;1.53;;;18.00;54.50;;;;;;10404104;28;20267;-70
2022/04/21 15:12:16;;;;;;;5.50;1.60;;;18.20;54.10;;;;;;10386369;28;20235;-70
2022/04/21 15:17:17;;;;;;;3.70;1.50;;;18.00;53.50;;;;;;10407368;28;20698;-69
2022/04/21 15:22:18;;;;;;;3.50;1.60;;;17.80;54.30;;;;;;10385453;28;20255;-68
2022/04/21 15:27:19;;;;;;;3.20;1.50;;;17.70;54.30;;;;;;10392665;28;20638;-70
2022/04/21 15:32:20;;;;;;;2.50;1.70;;;17.60;54.90;;;;;;10386910;28;20224;-70
2022/04/21 15:37:20;;;;;;;4.57;1.50;;;17.70;55.60;;;;;;10399590;28;20264;-70
2022/04/21 15:42:21;;;;;;;3.63;1.90;;;17.80;56.30;;;;;;10402318;28;20258;-70
2022/04/21 15:47:22;;;;;;;2.07;1.57;;;17.80;56.30;;;;;;10393475;28;20231;-70
2022/04/21 15:52:23;;;;;;;4.27;2.00;;;17.60;56.40;;;;;;10383649;28;20299;-70
2022/04/21 16:02:46;;;;;;;5.47;1.80;;;17.20;57.40;;;;;;10393916;28;20330;-69
2022/04/21 16:07:48;;;;;;;5.47;1.80;;;17.20;57.70;;;;;;10400242;28;20234;-68
2022/04/21 16:12:49;;;;;;;3.93;2.27;;;17.20;58.90;;;;;;10386279;28;20638;-71
2022/04/21 16:17:50;;;;;;;2.97;2.07;;;17.10;61.00;;;;;;10385369;28;20234;-69
2022/04/21 16:22:50;;;;;;;4.80;2.67;;;16.90;62.80;;;;;;10391377;28;20228;-68
2022/04/21 16:27:51;;;;;;;4.77;2.20;;;16.80;63.90;;;;;;10383524;28;20232;-68
2022/04/21 16:32:52;;;;;;;2.37;2.17;;;16.70;64.40;;;;;;10396313;28;20305;-69
2022/04/21 16:37:52;;;;;;;3.50;2.70;;;16.60;65.40;;;;;;10399390;28;20236;-70
2022/04/21 16:42:54;;;;;;;4.53;2.70;;;16.60;65.50;;;;;;10402140;28;20227;-69
2022/04/21 16:47:54;;;;;;;6.67;2.70;;;16.60;65.50;;;;;;10392233;28;20223;-71
2022/04/21 16:52:56;;;;;;;3.30;2.90;;;16.60;66.00;;;;;;10393937;28;20313;-70
2022/04/21 16:57:57;;;;;;;4.30;3.20;;;16.50;66.50;;;;;;10388835;28;20234;-70
2022/04/21 17:02:58;;;;;;;2.80;2.53;;;16.50;67.00;;;;;;10393485;28;20250;-70
2022/04/21 17:07:58;;;;;;;4.63;2.80;;;16.40;67.40;;;;;;10390916;28;20227;-72
2022/04/21 17:13:03;;;;;;;4.47;2.60;;;16.40;67.60;;;;;;10396586;28;20227;-70
2022/04/21 17:18:04;;;;;;;4.37;2.80;;;16.40;68.00;;;;;;10405833;28;20227;-68
2022/04/21 17:23:05;;;;;;;8.07;3.10;;;16.40;68.40;;;;;;10402838;28;20718;-69
2022/04/21 17:28:07;;;;;;;3.70;2.70;;;16.30;69.40;;;;;;10393234;28;20699;-70
2022/04/21 17:33:10;;;;;;;3.97;2.50;;;16.20;70.00;;;;;;10390582;28;20275;-68
2022/04/21 17:38:11;;;;;;;3.00;2.57;;;16.10;70.10;;;;;;10398893;28;20243;-68
2022/04/21 17:43:12;;;;;;;4.90;2.73;;;16.00;70.40;;;;;;10410796;28;20291;-69
2022/04/21 17:48:14;;;;;;;6.43;2.70;;;16.00;70.40;;;;;;10390899;28;20226;-68
2022/04/21 17:53:15;;;;;;;4.87;2.60;;;15.90;70.30;;;;;;10397005;28;20259;-69
2022/04/21 17:58:15;;;;;;;4.37;2.30;;;15.70;69.30;;;;;;10399132;28;20247;-70
2022/04/21 18:03:16;;;;;;;4.40;2.27;;;15.70;69.30;;;;;;10386807;28;20214;-69
2022/04/21 18:08:17;;;;;;;5.33;2.23;;;15.60;69.20;;;;;;10405168;28;20231;-68
2022/04/21 18:13:17;;;;;;;5.00;2.60;;;15.50;70.10;;;;;;10391429;28;20311;-70
2022/04/21 18:18:18;;;;;;;3.33;2.50;;;15.40;70.80;;;;;;10396177;28;20227;-69
2022/04/21 18:23:19;;;;;;;3.80;2.50;;;15.40;71.40;;;;;;10383040;28;20224;-69
2022/04/21 18:28:19;;;;;;;4.20;2.60;;;15.30;72.10;;;;;;10395903;28;20702;-69
2022/04/21 18:33:20;;;;;;;4.70;2.57;;;15.30;72.40;;;;;;10390614;28;20266;-71
2022/04/21 18:38:21;;;;;;;4.40;2.60;;;15.30;73.10;;;;;;10386320;28;20395;-68
2022/04/21 18:43:23;;;;;;;5.60;3.00;;;15.20;73.30;;;;;;10387000;28;20219;-68
2022/04/21 18:48:24;;;;;;;5.07;3.23;;;15.20;73.60;;;;;;10395181;28;20267;-68
2022/04/21 18:53:24;;;;;;;5.57;3.37;;;15.20;73.90;;;;;;10392101;28;20258;-68
2022/04/21 18:58:25;;;;;;;5.00;3.50;;;15.10;74.00;;;;;;10393227;28;20258;-67
2022/04/21 19:03:26;;;;;;;4.37;2.83;;;15.10;74.20;;;;;;10385909;28;20216;-68
2022/04/21 19:13:47;;;;;;;5.20;3.67;;;15.00;75.00;;;;;;10387774;28;20375;-68
2022/04/21 19:18:47;;;;;;;4.93;3.07;;;15.00;75.30;;;;;;10387682;28;20283;-68
2022/04/21 19:23:53;;;;;;;4.10;3.00;;;15.00;75.70;;;;;;10394658;28;20227;-69
2022/04/21 19:29:01;;;;;;;4.20;2.77;;;14.90;76.00;;;;;;10397357;28;20588;-71
2022/04/21 19:34:06;;;;;;;4.67;2.93;;;14.80;76.50;;;;;;10391171;28;20267;-69
2022/04/21 19:39:09;;;;;;;7.40;3.03;;;14.70;77.00;;;;;;10390748;28;20613;-69
2022/04/21 19:44:09;;;;;;;3.33;2.70;;;14.60;78.20;;;;;;10395364;28;20679;-69
2022/04/21 19:49:10;;;;;;;4.20;2.60;;;14.40;79.20;;;;;;10386190;28;20230;-70
2022/04/21 19:54:14;;;;;;;3.57;2.50;;;14.10;80.30;;;;;;10394915;28;20281;-69
2022/04/21 19:59:19;;;;;;;5.70;2.77;;;14.00;81.30;;;;;;10396715;28;20250;-70
2022/04/21 20:04:20;;;;;;;3.67;2.60;;;13.80;82.20;;;;;;10387113;28;20213;-69
2022/04/21 20:09:25;;;;;;;4.37;2.70;;;13.70;83.10;;;;;;10391662;28;20299;-70
2022/04/21 20:14:27;;;;;;;3.57;2.60;;;13.50;83.90;;;;;;10385798;28;20225;-68
2022/04/21 20:30:10;;;;;;;3.53;2.30;;;13.10;86.10;;;;;;10385636;28;20217;-69
2022/04/21 20:35:11;;;;;;;4.10;2.90;;;13.00;86.90;;;;;;10383213;28;20177;-69
2022/04/21 20:40:13;;;;;;;7.67;2.80;;;12.90;87.70;;;;;;10385163;28;20212;-69
2022/04/21 20:45:18;;;;;;;4.20;2.67;;;12.80;88.90;;;;;;10390672;28;20215;-71
2022/04/21 20:50:25;;;;;;;4.63;3.00;;;12.70;89.80;;;;;;10381891;28;20656;-69
2022/04/21 20:55:25;;;;;;;3.57;3.13;;;12.60;90.30;;;;;;10384427;28;20234;-70
2022/04/21 21:00:26;;;;;;;4.00;3.00;;;12.50;90.70;;;;;;10388386;28;20233;-70
2022/04/21 21:05:27;;;;;;;3.53;3.23;;;12.40;91.20;;;;;;10393512;28;20300;-72
2022/04/21 21:10:28;;;;;;;3.73;3.33;;;12.30;91.70;;;;;;10383851;28;20228;-69
2022/04/21 21:15:28;;;;;;;4.53;3.63;;;12.20;92.30;;;;;;10393244;28;20720;-69
2022/04/21 21:20:29;;;;;;;4.60;3.73;;;12.10;92.80;;;;;;10388519;28;20228;-69
2022/04/21 21:25:30;;;;;;;3.97;3.57;;;12.00;93.50;;;;;;10384557;28;20221;-70
2022/04/21 21:30:30;;;;;;;4.30;3.70;;;11.90;94.40;;;;;;10398572;28;20220;-69
2022/04/21 21:35:31;;;;;;;4.47;4.07;;;11.80;95.40;;;;;;10384214;28;20217;-69
2022/04/21 21:40:32;;;;;;;6.10;4.00;;;11.70;96.70;;;;;;10391602;28;20224;-69
2022/04/21 21:45:32;;;;;;;4.80;4.30;;;11.60;98.10;;;;;;10395072;28;20221;-69
2022/04/21 21:55:52;;;;;;;7.17;4.90;;;11.40;99.90;;;;;;10397798;28;20221;-69
2022/04/21 22:00:53;;;;;;;6.23;4.80;;;11.40;99.90;;;;;;10396806;28;20425;-69
2022/04/21 22:05:53;;;;;;;5.90;4.40;;;11.30;99.90;;;;;;10398054;28;20929;-69
2022/04/21 22:10:54;;;;;;;5.33;4.77;;;11.20;99.90;;;;;;10395919;28;20224;-68
2022/04/21 22:15:55;;;;;;;7.07;4.90;;;11.10;99.90;;;;;;10390082;28;20708;-68
2022/04/21 22:20:55;;;;;;;7.43;4.83;;;11.10;99.90;;;;;;10393313;28;20250;-69
2022/04/21 22:25:56;;;;;;;7.27;5.33;;;11.00;99.90;;;;;;10392477;28;20240;-69
2022/04/21 22:31:00;;;;;;;6.53;5.50;;;10.90;99.90;;;;;;10395144;28;20316;-69
2022/04/21 22:36:00;;;;;;;6.80;5.27;;;10.90;99.90;;;;;;10399713;28;20255;-69
2022/04/21 22:41:02;;;;;;;6.70;5.00;;;10.80;99.90;;;;;;10392382;28;20658;-70
2022/04/21 22:46:03;;;;;;;7.33;6.00;;;10.70;99.90;;;;;;10388376;28;20213;-70
2022/04/21 22:51:04;;;;;;;8.40;5.70;;;10.70;99.90;;;;;;10391008;28;20223;-68
2022/04/21 22:56:06;;;;;;;7.00;5.70;;;10.60;99.90;;;;;;10393883;28;20562;-69
2022/04/21 23:01:07;;;;;;;7.83;5.87;;;10.50;99.90;;;;;;10390848;28;20213;-70
2022/04/21 23:06:07;;;;;;;8.63;6.27;;;10.40;99.90;;;;;;10391940;28;20676;-69
2022/04/21 23:16:27;;;;;;;8.10;5.53;;;10.30;99.90;;;;;;10385816;28;20279;-69
2022/04/21 23:21:28;;;;;;;8.73;5.80;;;10.30;99.90;;;;;;10394122;28;20282;-69
2022/04/21 23:26:28;;;;;;;7.67;6.10;;;10.20;99.90;;;;;;10388118;28;20217;-69
2022/04/21 23:31:32;;;;;;;8.67;5.90;;;10.10;99.90;;;;;;10393954;28;20220;-69
2022/04/21 23:36:33;;;;;;;8.33;5.97;;;10.00;99.90;;;;;;10386451;28;21000;-69
2022/04/21 23:41:34;;;;;;;6.67;5.37;;;9.90;99.90;;;;;;10394892;28;20303;-69
2022/04/21 23:46:35;;;;;;;8.40;6.17;;;9.80;99.90;;;;;;10378831;28;20234;-68
2022/04/21 23:51:36;;;;;;;8.53;6.30;;;9.80;99.90;;;;;;10401170;28;20605;-68
2022/04/21 23:56:37;;;;;;;7.00;6.23;;;9.70;99.90;;;;;;10400136;28;20706;-69
